Huvudsida
METAR-TAF:

METAR-TAF

Flygplatser :

Stokmarknes flygplats. Skagen

Stokmarknes, Norge

latitud: 68-35N, longitud: 015-01E, höjd: 0 m

Aktuellt väderrapport

Denna rapport gjordes för 46 minuter sedan, klockan 18:50 UTC
Vind 12 kt från väst/sydväst
Temperatur 11°C
Fuktighet 87%
Tryck 1011 hPa
Sikt 10 km eller mer
Få moln på en höjd av 1000 ft
Spridda moln på en höjd av 1500 ft
Brutna moln på en höjd av 2700 ft
lätt duggregn

METAR: ENSK 251850Z 24012KT 9999 -DZ FEW010 SCT015 BKN027 11/09 Q1011

Tid: 21:36 (19:36 UTC)


TAF: saknas

Aktuella väderrapporter och prognoser från 4000 flygplatser (METAR- och TAF-rapporter).

De tillgängliga stationerna syns som gula och röda prickar på kartan.

För musen över prickarna för att se namnen på stationerna.

Klicka sedan för att få väderrapporter och prognoser.

För att ändra kartan: Klicka på de gröna knapparna med ett svart kors på för att zooma in; den gröna knappen med ett streck på för att zooma ut; eller på de gröna pilarna för angränsande kartor.


METAR-TAF: